Time;durP1;ratioP1;P1;durP2;ratioP2;P2;SDS_P1;SDS_P2;PMS_P1;PMS_P2;Temp;Humidity;BMP_temperature;BMP_pressure;BME280_temperature;BME280_humidity;BME280_pressure;Samples;Min_cycle;Max_cycle;Signal;HPM_P1;HPM_P2
2022/01/11 00:00:55;;;;;;;4.20;2.80;;;;;;;7.35;61.31;94513.38;5010473;28;20688;-60
2022/01/11 00:03:23;;;;;;;2.97;2.33;;;;;;;7.36;60.96;94505.28;5010311;28;21001;-61
2022/01/11 00:05:57;;;;;;;3.45;2.00;;;;;;;7.52;60.23;94514.06;5010977;28;20186;-62
2022/01/11 00:08:29;;;;;;;2.13;1.52;;;;;;;7.45;60.32;94523.88;5010741;28;20689;-61
2022/01/11 00:11:04;;;;;;;3.13;1.80;;;;;;;6.62;61.60;94524.97;5011161;28;20532;-61
2022/01/11 00:13:35;;;;;;;2.65;1.80;;;;;;;6.74;62.83;94537.88;5011588;28;20217;-60
2022/01/11 00:16:04;;;;;;;2.03;1.63;;;;;;;7.24;61.61;94522.91;5010579;28;20226;-60
2022/01/11 00:18:31;;;;;;;2.55;1.65;;;;;;;6.33;62.37;94528.72;5010487;28;20206;-61
2022/01/11 00:20:58;;;;;;;4.28;1.92;;;;;;;7.08;60.84;94534.13;5010452;28;20201;-60
2022/01/11 00:25:54;;;;;;;4.40;1.95;;;;;;;6.82;61.45;94527.84;5010540;28;20205;-62
2022/01/11 00:28:23;;;;;;;5.22;2.30;;;;;;;6.64;62.18;94538.50;5010152;28;20208;-61
2022/01/11 00:31:06;;;;;;;4.30;2.30;;;;;;;6.71;62.17;94539.16;5008580;28;20232;-60
2022/01/11 00:33:39;;;;;;;4.13;2.22;;;;;;;6.98;61.11;94526.22;5024601;28;20213;-61
2022/01/11 00:36:07;;;;;;;3.55;2.10;;;;;;;6.94;61.65;94544.16;5010038;28;20204;-60
2022/01/11 00:38:37;;;;;;;4.03;2.20;;;;;;;7.02;61.82;94545.53;5008455;28;20203;-59
2022/01/11 00:41:09;;;;;;;5.28;2.65;;;;;;;6.83;62.40;94545.03;5010038;28;20621;-60
2022/01/11 00:43:37;;;;;;;5.20;3.13;;;;;;;6.66;62.42;94552.06;5009479;28;20222;-60
2022/01/11 00:46:06;;;;;;;4.30;2.78;;;;;;;6.63;62.69;94551.78;5010410;28;20220;-60
2022/01/11 00:48:35;;;;;;;5.50;2.42;;;;;;;6.68;62.26;94518.78;5024855;28;20673;-61
2022/01/11 00:51:02;;;;;;;4.25;2.42;;;;;;;6.53;63.57;94562.81;5009903;28;20198;-60
2022/01/11 00:53:30;;;;;;;4.22;2.15;;;;;;;6.88;62.39;94560.72;5009304;28;20281;-60
2022/01/11 00:55:57;;;;;;;3.20;2.03;;;;;;;7.17;61.16;94569.97;5009967;28;20208;-60
2022/01/11 00:58:24;;;;;;;2.78;2.13;;;;;;;7.46;60.20;94556.75;5009417;28;20212;-60
2022/01/11 01:00:51;;;;;;;5.68;2.88;;;;;;;6.16;63.17;94577.34;5009764;28;20197;-60
2022/01/11 01:03:19;;;;;;;9.30;5.30;;;;;;;6.23;63.92;94574.56;5009498;28;20298;-61
2022/01/11 01:05:46;;;;;;;11.55;7.53;;;;;;;6.63;63.38;94583.81;5041669;28;20212;-59
2022/01/11 01:08:15;;;;;;;17.10;10.50;;;;;;;6.67;63.05;94577.09;5041749;28;20205;-59
2022/01/11 01:10:46;;;;;;;15.85;10.10;;;;;;;6.50;62.38;94584.13;5042108;28;20212;-59
2022/01/11 01:13:22;;;;;;;15.85;10.13;;;;;;;6.34;63.84;94578.91;5024024;28;20579;-60
2022/01/11 01:15:55;;;;;;;15.55;9.43;;;;;;;6.37;64.00;94579.22;5024569;28;20236;-61
2022/01/11 01:18:36;;;;;;;11.85;8.23;;;;;;;6.62;62.69;94582.25;5023993;28;20206;-59
2022/01/11 01:21:04;;;;;;;10.88;6.65;;;;;;;7.21;61.64;94590.34;5024428;28;20296;-60
2022/01/11 01:23:31;;;;;;;10.40;6.45;;;;;;;7.13;60.54;94588.94;5008867;28;20589;-61
2022/01/11 01:25:59;;;;;;;11.07;6.90;;;;;;;6.96;61.14;94588.97;5009504;28;20204;-61
2022/01/11 01:28:26;;;;;;;14.75;7.20;;;;;;;7.01;61.87;94591.63;5009464;28;20198;-60
2022/01/11 01:30:55;;;;;;;10.70;6.65;;;;;;;7.15;61.20;94586.88;5009411;28;20268;-60
2022/01/11 01:33:22;;;;;;;11.02;5.95;;;;;;;6.99;60.87;94596.28;5023557;28;20625;-60
2022/01/11 01:35:56;;;;;;;8.43;5.55;;;;;;;6.97;61.25;94598.34;5008784;28;20193;-58
2022/01/11 01:38:25;;;;;;;8.88;5.20;;;;;;;6.92;61.12;94590.47;5041325;28;20199;-63
2022/01/11 01:40:58;;;;;;;9.00;5.18;;;;;;;7.20;60.91;94599.97;5041235;28;20212;-60
2022/01/11 01:43:25;;;;;;;7.82;5.03;;;;;;;7.01;61.81;94598.66;5008830;28;20228;-61
2022/01/11 01:45:53;;;;;;;6.57;4.00;;;;;;;6.56;61.68;94604.00;5007807;28;20206;-60
2022/01/11 01:48:20;;;;;;;5.93;3.97;;;;;;;6.66;62.16;94598.16;5040424;28;20206;-60
2022/01/11 01:50:48;;;;;;;4.30;2.70;;;;;;;6.38;61.91;94609.44;5009564;28;20247;-59
2022/01/11 01:53:17;;;;;;;3.75;2.38;;;;;;;6.40;61.79;94586.59;5008653;28;20276;-59
2022/01/11 01:55:46;;;;;;;4.00;2.38;;;;;;;6.13;61.33;94607.19;5008509;28;20201;-60
2022/01/11 01:58:15;;;;;;;3.25;1.95;;;;;;;5.69;63.86;94607.16;5007275;28;20200;-61
2022/01/11 02:00:50;;;;;;;3.55;1.73;;;;;;;5.55;63.79;94613.63;5041038;28;20208;-61
2022/01/11 02:03:25;;;;;;;2.65;1.60;;;;;;;5.15;65.69;94617.03;5008153;28;20253;-61
2022/01/11 02:05:54;;;;;;;0.98;0.70;;;;;;;5.28;64.15;94620.38;5024193;28;20300;-61
2022/01/11 02:08:22;;;;;;;1.25;0.75;;;;;;;5.28;63.42;94615.97;5040426;28;20670;-59
2022/01/11 02:10:50;;;;;;;1.00;0.65;;;;;;;5.14;64.07;94625.84;5024563;28;20264;-59
2022/01/11 02:13:17;;;;;;;1.10;0.60;;;;;;;5.31;64.30;94622.53;5008609;28;20182;-60
2022/01/11 02:15:45;;;;;;;1.23;0.80;;;;;;;5.61;62.39;94625.72;5024024;28;20253;-60
2022/01/11 02:18:20;;;;;;;0.68;0.52;;;;;;;5.58;62.02;94621.00;5023744;28;20205;-60
2022/01/11 02:20:50;;;;;;;0.90;0.70;;;;;;;5.93;61.56;94625.06;5040570;28;20208;-60
2022/01/11 02:23:26;;;;;;;0.95;0.65;;;;;;;6.09;61.04;94623.53;5022231;28;20214;-60
2022/01/11 02:25:55;;;;;;;2.13;0.90;;;;;;;6.10;60.43;94630.28;5040384;28;20699;-60
2022/01/11 02:28:24;;;;;;;1.05;0.90;;;;;;;5.35;62.41;94628.81;5008678;28;20193;-60
2022/01/11 02:30:54;;;;;;;1.20;0.82;;;;;;;5.34;62.79;94632.44;5023739;28;20210;-60
2022/01/11 02:33:43;;;;;;;1.13;0.80;;;;;;;5.65;62.29;94632.03;5006870;28;20221;-59
2022/01/11 02:36:36;;;;;;;1.48;1.17;;;;;;;5.95;61.72;94633.41;5007677;28;20293;-61
2022/01/11 02:39:23;;;;;;;2.70;1.42;;;;;;;5.85;61.81;94638.44;5008212;28;20272;-60
2022/01/11 02:41:57;;;;;;;3.25;1.60;;;;;;;6.23;61.23;94648.22;5023453;28;20296;-60
2022/01/11 02:44:43;;;;;;;2.75;1.60;;;;;;;6.17;60.88;94633.53;5006682;28;20260;-61
2022/01/11 02:47:18;;;;;;;2.40;1.58;;;;;;;5.98;61.62;94638.16;5025486;28;20584;-61
2022/01/11 02:49:48;;;;;;;2.28;1.67;;;;;;;5.76;62.53;94641.59;5043808;28;20272;-60
2022/01/11 02:52:21;;;;;;;2.80;1.60;;;;;;;5.86;62.16;94644.41;5027206;28;20201;-61
2022/01/11 02:55:02;;;;;;;3.55;1.70;;;;;;;6.14;60.74;94652.22;5011096;28;20637;-60
2022/01/11 02:57:29;;;;;;;1.90;1.35;;;;;;;6.01;60.31;94649.91;5011149;28;20194;-60
2022/01/11 03:00:21;;;;;;;2.30;1.30;;;;;;;6.43;59.84;94651.16;5011825;28;20217;-60
2022/01/11 03:02:49;;;;;;;2.83;1.50;;;;;;;5.98;60.25;94652.97;5026894;28;20217;-61
2022/01/11 03:05:21;;;;;;;2.08;1.20;;;;;;;6.18;59.78;94655.94;4995495;28;20232;-60
2022/01/11 03:07:49;;;;;;;1.90;1.20;;;;;;;6.05;59.94;94656.22;5010278;28;20751;-60
2022/01/11 03:10:32;;;;;;;4.90;2.30;;;;;;;5.22;62.13;94642.09;5010392;28;20279;-62
2022/01/11 03:13:05;;;;;;;5.80;2.38;;;;;;;5.35;61.51;94657.41;5042984;28;20233;-60
2022/01/11 03:15:34;;;;;;;3.97;1.98;;;;;;;5.89;61.16;94649.94;5027079;28;20619;-60
2022/01/11 03:18:06;;;;;;;3.13;1.30;;;;;;;5.20;61.38;94646.72;5010237;28;20205;-60
2022/01/11 03:20:40;;;;;;;1.65;1.10;;;;;;;4.92;62.02;94668.19;5027237;28;20205;-61
2022/01/11 03:23:13;;;;;;;2.88;1.00;;;;;;;5.18;62.45;94664.34;5010957;28;20200;-59
2022/01/11 03:25:42;;;;;;;1.35;0.95;;;;;;;5.64;60.28;94662.44;5026977;28;20245;-60
2022/01/11 03:28:11;;;;;;;0.80;0.70;;;;;;;5.59;60.16;94664.94;5026727;28;20201;-61
2022/01/11 03:30:38;;;;;;;1.23;0.82;;;;;;;5.58;60.40;94667.78;5027111;28;20205;-61
2022/01/11 03:33:08;;;;;;;1.13;0.80;;;;;;;5.32;59.23;94663.06;5011264;28;20301;-60
2022/01/11 03:35:37;;;;;;;2.22;0.90;;;;;;;5.73;59.41;94662.88;5026881;28;20210;-61
2022/01/11 03:38:06;;;;;;;1.30;0.80;;;;;;;5.33;59.14;94664.66;5026500;28;20198;-61
2022/01/11 03:40:34;;;;;;;1.92;1.00;;;;;;;5.32;59.54;94669.06;5011602;28;20657;-61
2022/01/11 03:43:04;;;;;;;1.40;0.90;;;;;;;5.90;59.43;94667.13;5041923;28;20212;-61
2022/01/11 03:45:32;;;;;;;2.58;1.00;;;;;;;5.60;60.26;94670.94;5011024;28;20229;-60
2022/01/11 03:48:05;;;;;;;1.90;1.00;;;;;;;5.64;58.75;94667.63;5009407;28;20202;-60
2022/01/11 03:50:33;;;;;;;1.23;0.93;;;;;;;5.70;59.18;94676.31;5026293;28;20209;-60
2022/01/11 03:53:14;;;;;;;1.02;0.80;;;;;;;5.50;59.47;94675.91;5025722;28;20658;-60
2022/01/11 03:58:23;;;;;;;1.60;0.93;;;;;;;6.08;58.22;94679.94;5025222;28;20209;-60
2022/01/11 04:00:51;;;;;;;1.42;1.00;;;;;;;5.73;57.70;94681.84;5011062;28;20264;-60
2022/01/11 04:03:18;;;;;;;1.95;1.35;;;;;;;5.70;58.89;94697.91;5025339;28;20567;-60
2022/01/11 04:05:47;;;;;;;2.45;1.42;;;;;;;5.72;59.18;94688.06;5026220;28;20254;-60
2022/01/11 04:08:20;;;;;;;1.83;1.23;;;;;;;5.58;59.47;94678.16;5025599;28;20264;-60
2022/01/11 04:10:48;;;;;;;1.70;1.35;;;;;;;5.01;60.40;94693.59;5025934;28;20284;-59
2022/01/11 04:13:16;;;;;;;1.70;1.35;;;;;;;5.28;60.12;94699.09;5008384;28;20216;-60
2022/01/11 04:15:43;;;;;;;1.45;1.20;;;;;;;5.41;59.08;94703.25;5025946;28;20273;-61
2022/01/11 04:18:11;;;;;;;2.75;1.42;;;;;;;4.64;60.76;94712.94;5025544;28;20209;-61
2022/01/11 04:20:38;;;;;;;2.55;1.40;;;;;;;4.75;61.76;94709.56;5026017;28;20205;-60
2022/01/11 04:23:09;;;;;;;1.70;1.42;;;;;;;5.20;58.90;94719.44;5010110;28;20186;-60
2022/01/11 04:25:37;;;;;;;2.20;1.70;;;;;;;5.28;59.71;94719.09;5025863;28;20308;-61
2022/01/11 04:28:04;;;;;;;3.90;2.05;;;;;;;5.37;58.89;94722.91;5008918;28;20556;-60
2022/01/11 04:30:31;;;;;;;2.05;1.35;;;;;;;5.10;59.50;94707.00;5025647;28;20653;-61
2022/01/11 04:32:58;;;;;;;2.40;1.58;;;;;;;5.03;59.88;94743.50;5007957;28;20229;-61
2022/01/11 04:35:26;;;;;;;3.80;2.08;;;;;;;5.12;60.17;94734.34;5010555;28;20296;-61
2022/01/11 04:37:52;;;;;;;3.50;2.03;;;;;;;5.01;59.21;94739.53;5008632;28;20304;-61
2022/01/11 04:40:19;;;;;;;2.90;1.90;;;;;;;5.44;57.95;94731.41;5025130;28;20217;-61
2022/01/11 04:42:47;;;;;;;2.47;1.55;;;;;;;5.49;57.05;94737.47;5008176;28;20556;-61
2022/01/11 04:45:15;;;;;;;4.35;1.88;;;;;;;5.96;56.50;94730.44;5041645;28;20283;-60
2022/01/11 04:47:47;;;;;;;3.55;2.15;;;;;;;5.09;58.24;94752.97;5007818;28;20205;-61
2022/01/11 04:50:14;;;;;;;2.65;1.75;;;;;;;5.08;57.62;94746.19;5025093;28;20212;-61
2022/01/11 04:52:41;;;;;;;1.67;1.10;;;;;;;4.98;58.07;94756.34;5009606;28;20232;-60
2022/01/11 04:55:11;;;;;;;2.10;1.20;;;;;;;4.76;59.15;94755.28;5025204;28;20205;-61
2022/01/11 04:57:44;;;;;;;2.10;1.30;;;;;;;4.55;57.85;94760.19;5041381;28;20293;-61
2022/01/11 05:00:14;;;;;;;1.23;0.90;;;;;;;4.93;57.97;94769.19;5007843;28;20197;-61
2022/01/11 05:02:42;;;;;;;2.97;1.77;;;;;;;4.76;58.05;94763.06;5005807;28;20198;-62
2022/01/11 05:05:09;;;;;;;2.28;1.48;;;;;;;4.92;57.31;94767.63;5001614;28;20589;-61
2022/01/11 05:07:44;;;;;;;2.13;1.58;;;;;;;5.30;56.58;94753.41;5020691;28;20260;-60
2022/01/11 05:10:12;;;;;;;2.20;1.50;;;;;;;5.04;55.71;94754.66;5006350;28;20214;-61
2022/01/11 05:12:39;;;;;;;3.08;1.20;;;;;;;5.23;55.82;94773.53;5024216;28;20225;-60
2022/01/11 05:15:09;;;;;;;1.90;1.15;;;;;;;4.79;56.22;94775.63;5008228;28;20241;-61
2022/01/11 05:17:38;;;;;;;1.48;1.20;;;;;;;5.02;55.95;94780.84;5024188;28;20214;-61
2022/01/11 05:20:07;;;;;;;1.20;1.08;;;;;;;5.39;56.19;94772.84;5024598;28;20208;-59
2022/01/11 05:22:34;;;;;;;1.30;0.90;;;;;;;4.70;57.03;94781.34;4998856;28;20558;-59
2022/01/11 05:25:01;;;;;;;2.33;1.00;;;;;;;4.50;57.69;94784.22;4990899;28;20206;-58
2022/01/11 05:27:30;;;;;;;1.42;0.88;;;;;;;4.85;57.47;94795.47;4988365;28;20210;-61
2022/01/11 05:29:57;;;;;;;1.15;0.90;;;;;;;4.56;56.22;94788.50;5004778;28;20681;-58
2022/01/11 05:32:24;;;;;;;1.60;0.93;;;;;;;4.63;57.24;94793.63;4987978;28;20198;-60
2022/01/11 05:34:51;;;;;;;1.80;1.15;;;;;;;4.92;56.80;94788.41;5008603;28;20198;-57
2022/01/11 05:37:18;;;;;;;1.52;0.90;;;;;;;4.49;56.12;94798.19;5041086;28;20197;-57
2022/01/11 05:39:45;;;;;;;1.45;0.82;;;;;;;4.66;55.93;94788.78;5007562;28;20580;-58
2022/01/11 05:42:13;;;;;;;3.15;0.90;;;;;;;4.98;55.48;94787.50;4989467;28;20215;-58
2022/01/11 05:44:40;;;;;;;1.77;1.30;;;;;;;5.43;53.84;94789.56;4987794;28;20218;-59
2022/01/11 05:47:07;;;;;;;2.08;1.40;;;;;;;5.42;53.51;94795.81;5004722;28;20202;-57
2022/01/11 05:49:35;;;;;;;1.38;1.00;;;;;;;5.24;54.06;94806.28;5004287;28;20198;-60
2022/01/11 05:52:02;;;;;;;8.77;6.43;;;;;;;5.36;54.71;94804.47;5020102;28;20214;-62
2022/01/11 05:54:29;;;;;;;37.67;27.17;;;;;;;5.47;54.26;94806.28;4988424;28;20190;-60
2022/01/11 05:56:58;;;;;;;5.70;4.13;;;;;;;5.68;53.39;94790.13;5004037;28;20277;-60
2022/01/11 05:59:25;;;;;;;3.03;2.08;;;;;;;5.92;53.85;94809.91;4987178;28;20202;-60
2022/01/11 06:01:52;;;;;;;1.02;0.75;;;;;;;5.77;52.29;94817.34;5004053;28;20648;-58
2022/01/11 06:04:19;;;;;;;1.30;1.20;;;;;;;5.02;53.81;94819.78;5003752;28;20214;-59
2022/01/11 06:06:46;;;;;;;2.28;1.38;;;;;;;4.49;54.36;94826.72;5004502;28;20203;-59
2022/01/11 06:09:13;;;;;;;2.13;1.20;;;;;;;4.73;54.42;94820.59;4989044;28;20706;-60
2022/01/11 06:11:40;;;;;;;2.53;1.48;;;;;;;4.17;55.35;94830.50;4988153;28;20218;-60
2022/01/11 06:14:07;;;;;;;1.80;1.20;;;;;;;4.53;54.86;94840.03;5003549;28;20708;-59
2022/01/11 06:16:34;;;;;;;2.85;1.58;;;;;;;5.08;53.93;94839.69;5004288;28;20314;-62
2022/01/11 06:19:06;;;;;;;3.00;1.70;;;;;;;4.73;56.41;94840.56;5004523;28;20206;-64
2022/01/11 06:22:05;;;;;;;32.28;21.48;;;;;;;4.91;56.23;94837.91;4994144;28;20688;-62
2022/01/11 06:24:33;;;;;;;6.70;5.00;;;;;;;4.40;56.53;94859.16;5008073;28;20222;-60
2022/01/11 06:26:59;;;;;;;22.45;13.60;;;;;;;4.12;56.24;94856.31;4993448;28;20219;-60
2022/01/11 06:29:26;;;;;;;3.65;2.45;;;;;;;3.99;57.35;94864.22;5007754;28;20612;-61
2022/01/11 06:31:53;;;;;;;3.60;1.65;;;;;;;3.77;57.44;94869.03;5008237;28;20204;-62
2022/01/11 06:34:20;;;;;;;1.95;1.30;;;;;;;3.95;56.94;94865.66;5007359;28;20748;-61
2022/01/11 06:36:47;;;;;;;1.92;1.30;;;;;;;4.72;55.25;94865.75;5007993;28;20207;-60
2022/01/11 06:39:14;;;;;;;3.13;1.85;;;;;;;4.53;55.15;94881.56;4992255;28;20663;-61
2022/01/11 06:41:42;;;;;;;3.53;1.95;;;;;;;4.34;55.79;94880.00;5007889;28;20294;-61
2022/01/11 06:44:13;;;;;;;4.50;2.10;;;;;;;4.62;55.96;94875.84;5022754;28;20194;-62
2022/01/11 06:46:40;;;;;;;5.25;2.78;;;;;;;4.42;57.63;94870.13;4989278;28;20221;-63
2022/01/11 06:49:10;;;;;;;5.10;3.13;;;;;;;4.34;56.88;94865.25;5004807;28;20301;-62
2022/01/11 06:51:38;;;;;;;5.53;3.30;;;;;;;4.38;57.00;94878.56;5005465;28;20257;-61
2022/01/11 06:54:07;;;;;;;7.00;3.90;;;;;;;4.61;56.45;94887.25;4991367;28;20312;-60
2022/01/11 06:56:34;;;;;;;6.15;3.88;;;;;;;4.53;55.51;94892.72;5008502;28;20199;-61
2022/01/11 06:59:06;;;;;;;6.70;3.25;;;;;;;4.48;56.12;94879.63;5007761;28;20210;-60
2022/01/11 07:01:34;;;;;;;5.35;3.15;;;;;;;5.06;54.81;94888.44;5008440;28;20210;-61
2022/01/11 07:04:06;;;;;;;4.20;2.45;;;;;;;4.97;54.06;94900.16;5007691;28;20230;-61
2022/01/11 07:06:44;;;;;;;5.93;2.83;;;;;;;5.01;54.29;94906.50;5008081;28;20254;-61
2022/01/11 07:09:11;;;;;;;6.10;3.53;;;;;;;5.21;54.08;94910.63;4993637;28;20237;-61
2022/01/11 07:11:38;;;;;;;5.38;3.20;;;;;;;4.95;55.37;94902.19;5008255;28;20210;-61
2022/01/11 07:14:05;;;;;;;6.53;3.70;;;;;;;4.41;54.92;94907.47;5007506;28;20217;-60
2022/01/11 07:16:33;;;;;;;6.60;2.80;;;;;;;4.45;54.29;94908.63;4992857;28;20682;-61
2022/01/11 07:19:01;;;;;;;3.72;2.60;;;;;;;4.55;54.29;94906.28;5008680;28;20225;-60
2022/01/11 07:21:28;;;;;;;5.90;2.90;;;;;;;4.88;53.78;94914.47;5008062;28;20289;-60
2022/01/11 07:23:56;;;;;;;5.97;3.50;;;;;;;4.76;53.91;94923.97;5007328;28;20191;-61
2022/01/11 07:26:23;;;;;;;6.28;3.13;;;;;;;4.97;52.79;94931.31;4992592;28;20218;-61
2022/01/11 07:28:50;;;;;;;8.23;4.28;;;;;;;4.82;53.67;94930.91;5006900;28;20735;-61
2022/01/11 07:31:19;;;;;;;8.10;4.32;;;;;;;4.80;53.47;94935.53;5006995;28;20553;-61
2022/01/11 07:33:51;;;;;;;7.47;3.90;;;;;;;4.86;53.97;94939.84;5005702;28;20271;-62
2022/01/11 07:36:18;;;;;;;5.93;3.45;;;;;;;4.59;53.90;94932.59;5007146;28;20202;-63
2022/01/11 07:38:51;;;;;;;8.18;4.05;;;;;;;4.98;54.37;94938.09;5006706;28;20216;-61
2022/01/11 07:41:25;;;;;;;5.70;3.10;;;;;;;4.90;53.08;94924.63;4990981;28;20269;-63
2022/01/11 07:44:02;;;;;;;6.43;3.63;;;;;;;4.70;54.04;94950.84;4989885;28;20289;-63
2022/01/11 07:46:35;;;;;;;8.50;4.05;;;;;;;4.43;53.94;94954.72;5006923;28;20230;-62
2022/01/11 07:49:06;;;;;;;6.55;4.05;;;;;;;4.30;55.44;94960.06;4990218;28;20252;-63
2022/01/11 07:51:33;;;;;;;7.18;3.90;;;;;;;4.27;55.93;94960.47;5006869;28;20264;-62
2022/01/11 07:54:04;;;;;;;7.80;4.18;;;;;;;4.24;56.13;94960.09;4990193;28;20297;-63
2022/01/11 07:56:32;;;;;;;10.93;5.57;;;;;;;3.94;55.92;94970.38;5006995;28;20206;-63
2022/01/11 07:59:00;;;;;;;9.98;5.18;;;;;;;3.81;55.63;94960.09;5006525;28;20245;-63
2022/01/11 08:01:33;;;;;;;9.38;5.03;;;;;;;3.71;56.62;94968.34;4990855;28;20203;-64
2022/01/11 08:04:02;;;;;;;8.95;4.57;;;;;;;3.92;56.80;94977.56;5006670;28;20198;-63
2022/01/11 08:06:33;;;;;;;12.70;5.18;;;;;;;4.12;57.39;94983.38;5006762;28;20717;-63
2022/01/11 08:09:07;;;;;;;8.98;4.78;;;;;;;4.24;56.23;94978.25;5006132;28;20206;-62
2022/01/11 08:11:37;;;;;;;9.32;4.75;;;;;;;4.49;55.96;94984.97;5006809;28;20206;-63
2022/01/11 08:14:04;;;;;;;10.98;6.05;;;;;;;4.41;55.70;94981.88;4989709;28;20278;-62
2022/01/11 08:16:33;;;;;;;10.05;4.82;;;;;;;4.22;56.76;94981.06;5006321;28;20210;-63
2022/01/11 08:19:05;;;;;;;9.63;4.40;;;;;;;4.29;56.48;94994.75;5006235;28;20235;-63
2022/01/11 08:21:33;;;;;;;10.23;4.70;;;;;;;4.56;55.50;94996.06;4990049;28;20230;-63
2022/01/11 08:24:01;;;;;;;9.45;4.88;;;;;;;4.76;55.07;94998.50;5005873;28;20314;-63
2022/01/11 08:26:28;;;;;;;9.60;4.78;;;;;;;4.59;55.34;94995.66;4991208;28;20257;-63
2022/01/11 08:28:56;;;;;;;7.22;4.03;;;;;;;4.46;55.53;95006.19;5005827;28;20226;-63
2022/01/11 08:31:23;;;;;;;8.55;4.38;;;;;;;4.18;56.01;94998.06;5005896;28;20202;-63
2022/01/11 08:33:53;;;;;;;7.55;4.22;;;;;;;4.49;55.64;95003.16;5005670;28;20553;-65
2022/01/11 08:36:21;;;;;;;8.95;4.78;;;;;;;4.74;55.68;95003.09;5006104;28;20206;-64
2022/01/11 08:38:48;;;;;;;11.48;5.85;;;;;;;4.98;55.11;95010.00;5005647;28;20198;-63
2022/01/11 08:41:19;;;;;;;12.05;6.88;;;;;;;4.90;54.62;95007.69;5006190;28;20217;-62
2022/01/11 08:43:46;;;;;;;12.38;6.68;;;;;;;4.48;56.55;95018.94;5005404;28;20198;-63
2022/01/11 08:46:16;;;;;;;9.75;5.15;;;;;;;4.71;55.81;95019.88;5005638;28;20238;-63
2022/01/11 08:49:02;;;;;;;8.38;4.78;;;;;;;4.82;55.93;95026.94;5005199;28;20289;-64
2022/01/11 08:51:29;;;;;;;7.40;4.32;;;;;;;4.39;56.53;95044.38;5005887;28;20943;-64
2022/01/11 08:53:57;;;;;;;9.10;4.50;;;;;;;4.45;56.60;95035.75;5005281;28;20419;-64
2022/01/11 08:56:26;;;;;;;10.52;5.40;;;;;;;4.96;55.70;95046.56;5005944;28;20202;-63
2022/01/11 08:58:54;;;;;;;9.77;5.03;;;;;;;4.74;56.21;95045.44;5005147;28;20260;-64
2022/01/11 09:01:28;;;;;;;11.40;6.03;;;;;;;5.18;55.36;95059.13;5005281;28;20230;-63
2022/01/11 09:03:57;;;;;;;11.82;6.45;;;;;;;5.50;54.58;95055.31;5004859;28;20682;-63
2022/01/11 09:06:24;;;;;;;13.07;7.18;;;;;;;5.91;52.60;95058.00;5005301;28;20237;-62
2022/01/11 09:09:13;;;;;;;12.80;6.72;;;;;;;5.79;51.29;95059.72;4988550;28;20557;-62
2022/01/11 09:11:42;;;;;;;11.50;6.85;;;;;;;6.02;51.82;95054.63;5005286;28;20317;-63
2022/01/11 09:14:12;;;;;;;10.70;6.20;;;;;;;5.67;52.45;95051.09;5004444;28;20713;-64
2022/01/11 09:16:40;;;;;;;14.27;7.45;;;;;;;5.52;52.51;95050.69;4988554;28;20637;-63
2022/01/11 09:19:15;;;;;;;11.98;7.60;;;;;;;5.63;52.22;95060.34;5004717;28;20206;-63
2022/01/11 09:21:44;;;;;;;5.93;4.10;;;;;;;5.50;51.61;95058.72;5005345;28;20219;-63
2022/01/11 09:24:13;;;;;;;5.43;3.15;;;;;;;5.27;51.97;95070.81;5004691;28;20191;-62
2022/01/11 09:26:41;;;;;;;5.72;3.90;;;;;;;5.40;51.65;95060.25;4988849;28;20215;-63
2022/01/11 09:29:08;;;;;;;9.07;4.97;;;;;;;5.07;52.36;95066.63;4988139;28;20194;-62
2022/01/11 09:31:36;;;;;;;7.15;3.80;;;;;;;5.42;52.62;95073.81;4988650;28;20664;-64
2022/01/11 09:34:04;;;;;;;6.60;3.75;;;;;;;5.22;51.46;95062.88;4988475;28;20252;-63
2022/01/11 09:36:32;;;;;;;8.65;4.63;;;;;;;4.76;52.38;95074.53;5005339;28;20195;-62
2022/01/11 09:39:00;;;;;;;6.95;3.35;;;;;;;4.74;51.97;95071.38;5004611;28;20199;-63
2022/01/11 09:41:30;;;;;;;7.63;3.88;;;;;;;4.38;52.81;95071.28;5004977;28;20720;-63
2022/01/11 09:43:58;;;;;;;6.13;3.60;;;;;;;4.38;52.45;95070.53;5004343;28;20237;-63
2022/01/11 09:46:25;;;;;;;5.90;3.63;;;;;;;3.96;53.17;95075.41;5004444;28;20222;-63
2022/01/11 09:48:53;;;;;;;7.00;3.60;;;;;;;4.00;53.36;95078.38;5004347;28;20960;-63
2022/01/11 09:51:22;;;;;;;6.63;3.75;;;;;;;4.11;53.22;95086.28;4988399;28;20202;-62
2022/01/11 09:53:50;;;;;;;7.85;3.90;;;;;;;3.79;54.29;95079.53;5004421;28;20206;-63
2022/01/11 09:56:17;;;;;;;7.57;3.78;;;;;;;3.82;53.93;95093.84;4990044;28;20282;-62
2022/01/11 09:58:45;;;;;;;4.75;2.60;;;;;;;4.06;53.63;95093.91;5008663;28;20206;-62
2022/01/11 10:01:31;;;;;;;7.70;3.38;;;;;;;3.98;53.05;95070.00;4993971;28;20587;-63
2022/01/11 10:04:24;;;;;;;3.58;2.40;;;;;;;3.59;53.58;95084.03;4993493;28;20305;-63
2022/01/11 10:07:13;;;;;;;5.05;2.80;;;;;;;3.72;53.89;95063.19;4993897;28;20631;-64
2022/01/11 10:09:50;;;;;;;4.13;2.47;;;;;;;3.41;54.45;95083.13;5008446;28;20599;-63
2022/01/11 10:12:18;;;;;;;5.60;2.70;;;;;;;3.33;54.27;95075.56;5008899;28;20225;-63
2022/01/11 10:14:50;;;;;;;4.53;2.45;;;;;;;3.56;54.10;95076.66;5008989;28;20234;-63
2022/01/11 10:17:19;;;;;;;4.68;3.00;;;;;;;3.87;54.22;95073.28;5009466;28;20644;-63
2022/01/11 10:20:00;;;;;;;6.10;3.10;;;;;;;3.74;53.92;95083.75;5008557;28;20209;-63
2022/01/11 10:22:30;;;;;;;7.07;3.30;;;;;;;3.82;53.40;95079.09;5008487;28;20543;-63
2022/01/11 10:24:58;;;;;;;8.18;4.10;;;;;;;4.02;53.27;95077.16;5008146;28;20195;-64
2022/01/11 10:27:35;;;;;;;7.85;4.00;;;;;;;4.04;53.59;95079.56;4991921;28;20226;-63
2022/01/11 10:30:16;;;;;;;6.32;3.40;;;;;;;3.65;54.15;95079.81;5008993;28;20209;-62
2022/01/11 10:32:56;;;;;;;6.95;3.10;;;;;;;3.43;53.83;95084.47;5007777;28;20207;-63
2022/01/11 10:35:40;;;;;;;4.70;2.78;;;;;;;3.54;53.63;95085.66;5007959;28;20611;-63
2022/01/11 10:38:29;;;;;;;7.00;4.00;;;;;;;3.43;54.44;95086.31;4991684;28;20202;-64
2022/01/11 10:41:10;;;;;;;9.35;4.45;;;;;;;3.76;54.80;95079.94;5008258;28;20310;-63
2022/01/11 10:43:44;;;;;;;7.07;3.90;;;;;;;3.67;53.58;95086.34;4991632;28;20230;-63
2022/01/11 10:46:17;;;;;;;6.82;3.85;;;;;;;3.51;53.51;95084.25;5008240;28;20260;-63
2022/01/11 10:49:02;;;;;;;8.02;4.45;;;;;;;3.51;53.55;95088.63;4991075;28;20678;-63
2022/01/11 10:51:29;;;;;;;6.75;3.83;;;;;;;3.83;52.84;95092.88;5008040;28;20203;-63
2022/01/11 10:53:56;;;;;;;8.32;4.63;;;;;;;3.65;52.38;95085.00;5007462;28;20690;-64
2022/01/11 10:56:39;;;;;;;10.45;5.07;;;;;;;3.49;53.66;95077.69;5008233;28;20718;-64
2022/01/11 10:59:10;;;;;;;9.20;5.13;;;;;;;3.33;54.09;95080.75;4992756;28;20190;-63
2022/01/11 11:01:48;;;;;;;6.95;3.65;;;;;;;3.55;53.01;95089.81;4991078;28;20256;-64
2022/01/11 11:04:32;;;;;;;7.55;4.22;;;;;;;3.61;52.96;95089.00;4992586;28;20206;-63
2022/01/11 11:07:13;;;;;;;7.55;4.53;;;;;;;3.66;52.41;95087.38;5007584;28;20234;-64
2022/01/11 11:09:50;;;;;;;8.02;4.47;;;;;;;3.55;51.90;95093.22;5007329;28;20202;-64
2022/01/11 11:12:21;;;;;;;9.27;5.25;;;;;;;3.41;52.32;95093.47;5007763;28;20210;-64
2022/01/11 11:15:00;;;;;;;8.85;4.70;;;;;;;3.69;52.39;95083.56;4991778;28;20698;-64
2022/01/11 11:17:38;;;;;;;7.45;4.57;;;;;;;3.98;51.36;95082.97;5007274;28;20603;-64
2022/01/11 11:20:13;;;;;;;10.20;5.72;;;;;;;3.52;51.55;95091.00;5007736;28;20250;-63
2022/01/11 11:22:41;;;;;;;9.50;5.63;;;;;;;3.67;51.55;95081.19;4991724;28;20194;-62
2022/01/11 11:25:08;;;;;;;7.43;4.72;;;;;;;3.35;51.59;95094.28;4992327;28;20205;-62
2022/01/11 11:27:35;;;;;;;9.63;5.68;;;;;;;3.64;51.37;95109.31;4992027;28;20237;-64
2022/01/11 11:30:04;;;;;;;8.32;5.20;;;;;;;3.66;51.13;95107.31;4992342;28;20654;-64
2022/01/11 11:32:32;;;;;;;8.68;5.32;;;;;;;3.49;51.09;95098.41;5006927;28;20598;-63
2022/01/11 11:34:59;;;;;;;9.65;5.68;;;;;;;3.46;51.23;95112.59;4991995;28;20257;-64
2022/01/11 11:37:34;;;;;;;11.00;5.43;;;;;;;3.51;50.41;95104.19;4992353;28;20206;-63
2022/01/11 11:40:06;;;;;;;9.98;5.80;;;;;;;3.57;50.40;95103.38;4992177;28;20214;-63
2022/01/11 11:42:33;;;;;;;9.02;5.03;;;;;;;3.81;49.96;95110.41;4991644;28;20727;-64
2022/01/11 11:45:14;;;;;;;8.20;5.03;;;;;;;3.72;50.87;95106.47;4992038;28;20194;-64
2022/01/11 11:47:41;;;;;;;11.43;5.68;;;;;;;3.61;50.12;95114.91;4991349;28;20230;-63
2022/01/11 11:50:14;;;;;;;9.88;5.63;;;;;;;3.55;50.35;95120.91;4992251;28;20205;-63
2022/01/11 11:52:44;;;;;;;11.30;6.28;;;;;;;3.50;50.85;95112.97;4991162;28;20662;-63
2022/01/11 11:55:23;;;;;;;12.23;6.07;;;;;;;3.48;51.19;95120.16;4991815;28;20211;-61
2022/01/11 11:58:15;;;;;;;7.57;5.47;;;;;;;3.71;50.97;95121.22;5006326;28;20210;-63
2022/01/11 12:00:44;;;;;;;9.20;5.50;;;;;;;3.63;50.14;95126.63;4991588;28;20202;-63
2022/01/11 12:03:17;;;;;;;10.60;5.50;;;;;;;3.29;50.73;95131.38;4991214;28;20578;-65